createdAt,value
2022-11-05T00:00:38.781Z,100754.20
2022-11-05T00:03:29.941Z,100756.00
2022-11-05T00:06:16.633Z,100752.80
2022-11-05T00:09:02.898Z,100752.00
2022-11-05T00:11:49.571Z,100750.00
2022-11-05T00:14:35.969Z,100754.60
2022-11-05T00:17:03.702Z,100760.20
2022-11-05T00:19:31.477Z,100766.60
2022-11-05T00:22:17.811Z,100762.00
2022-11-05T00:25:04.229Z,100764.80
2022-11-05T00:27:34.248Z,100763.60
2022-11-05T00:30:06.002Z,100770.20
2022-11-05T00:32:33.959Z,100769.40
2022-11-05T00:35:01.743Z,100773.60
2022-11-05T00:37:29.907Z,100779.80
2022-11-05T00:39:57.719Z,100779.40
2022-11-05T00:42:43.998Z,100786.60
2022-11-05T00:45:11.988Z,100778.00
2022-11-05T00:47:59.206Z,100779.20
2022-11-05T00:50:27.706Z,100779.40
2022-11-05T00:52:59.686Z,100776.80
2022-11-05T00:55:35.627Z,100778.20
2022-11-05T00:58:13.811Z,100773.40
2022-11-05T01:00:48.518Z,100767.80
2022-11-05T01:03:18.831Z,100772.60
2022-11-05T01:05:53.458Z,100777.80
2022-11-05T01:08:24.930Z,100767.00
2022-11-05T01:10:58.173Z,100763.00
2022-11-05T01:13:29.892Z,100758.80
2022-11-05T01:15:58.129Z,100755.40
2022-11-05T01:18:25.974Z,100751.00
2022-11-05T01:20:53.725Z,100757.20
2022-11-05T01:23:21.792Z,100755.60
2022-11-05T01:25:50.026Z,100757.40
2022-11-05T01:28:17.792Z,100744.40
2022-11-05T01:30:45.598Z,100744.20
2022-11-05T01:33:13.629Z,100744.20
2022-11-05T01:35:41.697Z,100742.20
2022-11-05T01:38:09.418Z,100750.00
2022-11-05T01:40:37.173Z,100752.20
2022-11-05T01:43:16.049Z,100753.60
2022-11-05T01:45:51.223Z,100751.80
2022-11-05T01:48:32.089Z,100754.00
2022-11-05T01:51:08.721Z,100758.20
2022-11-05T01:54:04.204Z,100752.20
2022-11-05T01:56:38.679Z,100744.60
2022-11-05T01:59:23.112Z,100747.00
2022-11-05T02:01:52.022Z,100741.20
2022-11-05T02:04:39.364Z,100736.60
2022-11-05T02:07:09.550Z,100734.80
2022-11-05T02:10:06.442Z,100730.60
2022-11-05T02:12:37.529Z,100735.80
2022-11-05T02:15:06.881Z,100732.20
2022-11-05T02:17:55.334Z,100725.00
2022-11-05T02:20:35.841Z,100729.60
2022-11-05T02:23:31.510Z,100726.00
2022-11-05T02:26:52.097Z,100725.00
2022-11-05T02:30:00.945Z,100722.80
2022-11-05T02:33:00.089Z,100722.00
2022-11-05T02:35:45.111Z,100725.20
2022-11-05T02:38:40.571Z,100724.80
2022-11-05T02:41:24.070Z,100726.60
2022-11-05T02:44:25.486Z,100732.80
2022-11-05T02:47:18.151Z,100736.80
2022-11-05T02:50:29.164Z,100741.40
2022-11-05T02:53:02.823Z,100741.80
2022-11-05T02:55:52.472Z,100736.00
2022-11-05T02:58:20.226Z,100733.60
2022-11-05T03:00:55.162Z,100724.00
2022-11-05T03:03:32.158Z,100726.60
2022-11-05T03:06:40.339Z,100734.40
2022-11-05T03:09:45.121Z,100733.20
2022-11-05T03:12:56.987Z,100721.40
2022-11-05T03:16:02.347Z,100715.40
2022-11-05T03:18:54.671Z,100709.60
2022-11-05T03:21:27.407Z,100706.80
2022-11-05T03:24:13.792Z,100702.80
2022-11-05T03:26:54.458Z,100704.60
2022-11-05T03:29:57.239Z,100696.80
2022-11-05T03:32:29.207Z,100688.20
2022-11-05T03:35:04.226Z,100684.40
2022-11-05T03:37:37.452Z,100678.40
2022-11-05T03:40:09.846Z,100683.40
2022-11-05T03:42:43.712Z,100682.40
2022-11-05T03:45:24.721Z,100682.60
2022-11-05T03:47:56.770Z,100681.00
2022-11-05T03:50:40.968Z,100679.20
2022-11-05T03:53:43.528Z,100679.20
2022-11-05T03:56:22.879Z,100675.20
2022-11-05T03:58:56.137Z,100674.80
2022-11-05T04:01:27.939Z,100677.20
2022-11-05T04:03:55.893Z,100680.80
2022-11-05T04:06:42.706Z,100677.40
2022-11-05T04:09:29.433Z,100681.40
2022-11-05T04:12:15.683Z,100677.40
2022-11-05T04:14:43.477Z,100677.80
2022-11-05T04:17:11.400Z,100678.60
2022-11-05T04:20:01.716Z,100670.60
2022-11-05T04:22:54.428Z,100677.60
2022-11-05T04:25:22.902Z,100691.60
2022-11-05T04:27:51.529Z,100687.40
2022-11-05T04:30:20.160Z,100688.20
2022-11-05T04:33:05.754Z,100689.40
2022-11-05T04:35:48.722Z,100693.40
2022-11-05T04:38:19.745Z,100690.60
2022-11-05T04:40:48.303Z,100693.40
2022-11-05T04:43:19.341Z,100695.00
2022-11-05T04:45:47.570Z,100695.60
2022-11-05T04:48:15.333Z,100697.80
2022-11-05T04:50:43.040Z,100704.20
2022-11-05T04:53:11.079Z,100694.20
2022-11-05T04:55:39.043Z,100692.00
2022-11-05T04:58:07.291Z,100686.80
2022-11-05T05:00:35.144Z,100681.20
2022-11-05T05:03:02.905Z,100675.40
2022-11-05T05:05:30.651Z,100672.60
2022-11-05T05:08:03.160Z,100668.20
2022-11-05T05:10:32.543Z,100664.20
2022-11-05T05:13:00.268Z,100663.20
2022-11-05T05:15:27.995Z,100665.20
2022-11-05T05:17:56.303Z,100662.80
2022-11-05T05:20:42.851Z,100659.80
2022-11-05T05:23:11.070Z,100656.00
2022-11-05T05:25:39.021Z,100656.80
2022-11-05T05:28:06.784Z,100654.20
2022-11-05T05:30:34.584Z,100656.00
2022-11-05T05:33:04.051Z,100655.40
2022-11-05T05:35:31.851Z,100652.40
2022-11-05T05:37:59.591Z,100651.60
2022-11-05T05:40:27.579Z,100651.80
2022-11-05T05:42:55.930Z,100648.60
2022-11-05T05:45:23.697Z,100647.20
2022-11-05T05:47:51.542Z,100647.80
2022-11-05T05:50:19.273Z,100646.20
2022-11-05T05:52:53.591Z,100642.40
2022-11-05T05:55:21.460Z,100643.60
2022-11-05T05:57:49.347Z,100638.40
2022-11-05T06:00:17.490Z,100644.60
2022-11-05T06:02:45.447Z,100641.20
2022-11-05T06:05:13.491Z,100637.80
2022-11-05T06:07:41.303Z,100633.20
2022-11-05T06:10:09.412Z,100639.60
2022-11-05T06:12:37.206Z,100641.00
2022-11-05T06:15:05.754Z,100640.20
2022-11-05T06:17:33.948Z,100645.00
2022-11-05T06:20:01.872Z,100650.20
2022-11-05T06:22:30.165Z,100643.00
2022-11-05T06:24:57.925Z,100641.00
2022-11-05T06:27:25.750Z,100639.20
2022-11-05T06:29:53.564Z,100634.20
2022-11-05T06:32:21.402Z,100632.00
2022-11-05T06:34:49.243Z,100628.80
2022-11-05T06:37:16.975Z,100627.60
2022-11-05T06:39:44.763Z,100629.40
2022-11-05T06:42:18.472Z,100631.20
2022-11-05T06:44:47.171Z,100634.80
2022-11-05T06:47:14.993Z,100634.40
2022-11-05T06:49:42.704Z,100632.00
2022-11-05T06:52:11.036Z,100628.60
2022-11-05T06:54:39.880Z,100625.60
2022-11-05T06:57:12.651Z,100619.00
2022-11-05T06:59:40.938Z,100618.00
2022-11-05T07:02:13.356Z,100616.00
2022-11-05T07:04:41.217Z,100625.40
2022-11-05T07:07:09.372Z,100616.00
2022-11-05T07:09:40.503Z,100614.80
2022-11-05T07:12:08.633Z,100615.80
2022-11-05T07:14:36.667Z,100617.20
2022-11-05T07:17:04.457Z,100624.60
2022-11-05T07:19:32.226Z,100622.00
2022-11-05T07:21:59.963Z,100621.80
2022-11-05T07:24:27.759Z,100623.80
2022-11-05T07:26:55.525Z,100622.60
2022-11-05T07:29:23.273Z,100619.20
2022-11-05T07:31:51.133Z,100615.80
2022-11-05T07:34:18.973Z,100625.00
2022-11-05T07:36:46.714Z,100620.20
2022-11-05T07:39:14.447Z,100625.20
2022-11-05T07:41:42.185Z,100621.20
2022-11-05T07:44:09.920Z,100620.00
2022-11-05T07:46:37.710Z,100629.20
2022-11-05T07:49:05.450Z,100628.80
2022-11-05T07:51:33.436Z,100630.60
2022-11-05T07:54:01.347Z,100627.00
2022-11-05T07:56:29.116Z,100629.60
2022-11-05T07:58:56.921Z,100630.20
2022-11-05T08:01:25.059Z,100631.80
2022-11-05T08:03:53.026Z,100629.20
2022-11-05T08:06:20.864Z,100628.40
2022-11-05T08:08:48.598Z,100633.60
2022-11-05T08:11:16.430Z,100623.00
2022-11-05T08:13:44.250Z,100623.80
2022-11-05T08:16:12.040Z,100626.00
2022-11-05T08:18:40.097Z,100623.40
2022-11-05T08:21:09.054Z,100624.40
2022-11-05T08:23:38.668Z,100622.00
2022-11-05T08:26:06.414Z,100615.40
2022-11-05T08:28:34.157Z,100616.40
2022-11-05T08:31:01.965Z,100614.60
2022-11-05T08:33:31.521Z,100618.00
2022-11-05T08:36:03.957Z,100619.60
2022-11-05T08:38:32.080Z,100620.20
2022-11-05T08:41:00.870Z,100619.40
2022-11-05T08:43:28.755Z,100616.20
2022-11-05T08:45:56.558Z,100614.60
2022-11-05T08:48:24.502Z,100607.80
2022-11-05T08:50:52.409Z,100605.80
2022-11-05T08:53:20.510Z,100606.40
2022-11-05T08:55:50.139Z,100606.20
2022-11-05T08:58:20.147Z,100608.40
2022-11-05T09:00:50.118Z,100605.20
2022-11-05T09:03:18.836Z,100602.40
2022-11-05T09:05:46.853Z,100599.40
2022-11-05T09:08:18.929Z,100598.20
2022-11-05T09:10:48.075Z,100589.80
2022-11-05T09:13:19.246Z,100584.20
2022-11-05T09:15:50.204Z,100577.60
2022-11-05T09:18:20.047Z,100577.00
2022-11-05T09:20:48.383Z,100582.60
2022-11-05T09:23:16.334Z,100578.40
2022-11-05T09:25:45.005Z,100573.80
2022-11-05T09:28:20.343Z,100573.40
2022-11-05T09:30:51.904Z,100558.40
2022-11-05T09:33:22.159Z,100565.20
2022-11-05T09:35:50.199Z,100559.80
2022-11-05T09:38:18.349Z,100556.80
2022-11-05T09:41:03.827Z,100547.80
2022-11-05T09:43:38.955Z,100546.20
2022-11-05T09:46:24.012Z,100553.20
2022-11-05T09:49:05.063Z,100553.60
2022-11-05T09:51:36.086Z,100551.00
2022-11-05T09:54:04.169Z,100548.20
2022-11-05T09:56:40.384Z,100538.20
2022-11-05T09:59:32.703Z,100535.20
2022-11-05T10:02:17.108Z,100531.40
2022-11-05T10:04:50.572Z,100526.20
2022-11-05T10:07:23.727Z,100525.20
2022-11-05T10:09:57.674Z,100522.20
2022-11-05T10:12:50.108Z,100522.40
2022-11-05T10:15:48.664Z,100513.60
2022-11-05T10:18:47.510Z,100505.60
2022-11-05T10:21:32.242Z,100513.60
2022-11-05T10:24:20.836Z,100516.80
2022-11-05T10:26:53.834Z,100518.40
2022-11-05T10:29:32.506Z,100519.40
2022-11-05T10:32:05.610Z,100502.80
2022-11-05T10:34:38.645Z,100489.00
2022-11-05T10:37:06.550Z,100481.00
2022-11-05T10:39:35.030Z,100485.00
2022-11-05T10:42:44.577Z,100480.80
2022-11-05T10:45:36.904Z,100463.20
2022-11-05T10:48:20.529Z,100459.80
2022-11-05T10:50:48.673Z,100461.60
2022-11-05T10:53:26.814Z,100448.20
2022-11-05T10:55:54.980Z,100442.80
2022-11-05T10:58:31.768Z,100438.80
2022-11-05T11:00:59.575Z,100444.80
2022-11-05T11:03:39.469Z,100448.00
2022-11-05T11:06:26.928Z,100448.20
2022-11-05T11:09:02.723Z,100439.60
2022-11-05T11:11:39.186Z,100434.80
2022-11-05T11:14:22.387Z,100434.20
2022-11-05T11:16:53.395Z,100433.40
2022-11-05T11:19:26.174Z,100431.60
2022-11-05T11:22:05.819Z,100423.60
2022-11-05T11:24:45.194Z,100425.00
2022-11-05T11:27:19.524Z,100424.60
2022-11-05T11:29:55.261Z,100427.60
2022-11-05T11:32:32.547Z,100430.60
2022-11-05T11:35:01.202Z,100438.40
2022-11-05T11:37:35.028Z,100438.40
2022-11-05T11:40:14.590Z,100428.00
2022-11-05T11:42:50.999Z,100422.40
2022-11-05T11:45:31.725Z,100426.00
2022-11-05T11:48:05.909Z,100416.20
2022-11-05T11:50:47.210Z,100414.40
2022-11-05T11:53:21.448Z,100419.80
2022-11-05T11:55:55.442Z,100414.80
2022-11-05T11:58:36.833Z,100402.20
2022-11-05T12:01:23.088Z,100402.60
2022-11-05T12:04:25.793Z,100391.20
2022-11-05T12:07:44.274Z,100381.00
2022-11-05T12:10:52.650Z,100369.00
2022-11-05T12:13:23.630Z,100360.40
2022-11-05T12:16:18.267Z,100360.80
2022-11-05T12:19:16.363Z,100356.00
2022-11-05T12:22:04.613Z,100354.40
2022-11-05T12:24:43.313Z,100350.40
2022-11-05T12:27:38.799Z,100343.40
2022-11-05T12:30:19.819Z,100340.80
2022-11-05T12:33:17.468Z,100332.20
2022-11-05T12:36:27.152Z,100324.40
2022-11-05T12:39:44.415Z,100315.20
2022-11-05T12:42:45.421Z,100321.20
2022-11-05T12:45:41.269Z,100306.40
2022-11-05T12:48:30.281Z,100309.20
2022-11-05T12:51:08.488Z,100315.80
2022-11-05T12:53:48.128Z,100313.40
2022-11-05T12:56:31.099Z,100300.20
2022-11-05T12:59:28.437Z,100317.80
2022-11-05T13:02:29.894Z,100320.40
2022-11-05T13:05:13.560Z,100307.00
2022-11-05T13:08:17.762Z,100295.20
2022-11-05T13:10:52.004Z,100294.40
2022-11-05T13:13:38.544Z,100301.40
2022-11-05T13:16:19.783Z,100299.00
2022-11-05T13:18:56.477Z,100293.00
2022-11-05T13:21:29.654Z,100282.60
2022-11-05T13:24:07.779Z,100273.80
2022-11-05T13:26:47.220Z,100271.60
2022-11-05T13:29:27.038Z,100278.00
2022-11-05T13:32:03.328Z,100271.40
2022-11-05T13:34:37.301Z,100264.40
2022-11-05T13:37:27.121Z,100258.80
2022-11-05T13:40:06.643Z,100261.00
2022-11-05T13:42:57.640Z,100253.00
2022-11-05T13:46:04.423Z,100239.40
2022-11-05T13:48:52.652Z,100235.00
2022-11-05T13:51:58.173Z,100228.80
2022-11-05T13:55:26.312Z,100216.40
2022-11-05T13:58:26.065Z,100213.20
2022-11-05T14:01:10.099Z,100220.80
2022-11-05T14:03:44.710Z,100212.80
2022-11-05T14:06:12.587Z,100216.40
2022-11-05T14:08:46.258Z,100213.20
2022-11-05T14:11:28.411Z,100202.60
2022-11-05T14:14:01.525Z,100199.40
2022-11-05T14:16:48.545Z,100200.20
2022-11-05T14:19:18.907Z,100203.20
2022-11-05T14:21:58.162Z,100205.60
2022-11-05T14:24:43.123Z,100208.60
2022-11-05T14:27:13.983Z,100199.60
2022-11-05T14:29:47.845Z,100202.60
2022-11-05T14:32:21.581Z,100201.20
2022-11-05T14:35:04.063Z,100201.80
2022-11-05T14:37:39.508Z,100182.60
2022-11-05T14:40:44.687Z,100187.00
2022-11-05T14:43:23.624Z,100186.20
2022-11-05T14:46:01.898Z,100185.20
2022-11-05T14:48:50.284Z,100179.20
2022-11-05T14:51:32.548Z,100167.20
2022-11-05T14:54:06.663Z,100166.40
2022-11-05T14:56:54.954Z,100175.60
2022-11-05T14:59:23.945Z,100174.40
2022-11-05T15:01:58.039Z,100170.60
2022-11-05T15:04:31.813Z,100168.20
2022-11-05T15:07:02.287Z,100161.60
2022-11-05T15:09:43.174Z,100155.00
2022-11-05T15:12:23.737Z,100154.20
2022-11-05T15:14:59.307Z,100156.40
2022-11-05T15:17:40.252Z,100159.60
2022-11-05T15:20:09.084Z,100158.00
2022-11-05T15:22:43.708Z,100161.40
2022-11-05T15:25:27.013Z,100166.60
2022-11-05T15:28:06.082Z,100164.20
2022-11-05T15:30:34.187Z,100164.60
2022-11-05T15:33:20.337Z,100158.80
2022-11-05T15:35:48.125Z,100153.40
2022-11-05T15:38:29.104Z,100154.40
2022-11-05T15:41:18.889Z,100159.60
2022-11-05T15:43:49.013Z,100153.40
2022-11-05T15:46:22.028Z,100152.80
2022-11-05T15:48:55.914Z,100151.20
2022-11-05T15:51:26.272Z,100150.80
2022-11-05T15:56:53.125Z,100145.40
2022-11-05T15:59:24.470Z,100140.40
2022-11-05T16:02:21.069Z,100133.00
2022-11-05T16:04:50.169Z,100129.40
2022-11-05T16:07:19.005Z,100126.60
2022-11-05T16:10:02.114Z,100138.20
2022-11-05T16:12:36.785Z,100132.00
2022-11-05T16:15:10.655Z,100133.00
2022-11-05T16:17:59.550Z,100133.60
2022-11-05T16:20:38.400Z,100137.80
2022-11-05T16:23:23.260Z,100126.80
2022-11-05T16:25:51.504Z,100130.80
2022-11-05T16:28:24.194Z,100128.40
2022-11-05T16:30:58.472Z,100126.40
2022-11-05T16:33:35.257Z,100130.20
2022-11-05T16:36:03.462Z,100124.80
2022-11-05T16:38:31.189Z,100122.40
2022-11-05T16:41:00.363Z,100120.60
2022-11-05T16:43:28.122Z,100116.20
2022-11-05T16:46:00.144Z,100113.60
2022-11-05T16:48:28.392Z,100114.00
2022-11-05T16:50:56.261Z,100111.20
2022-11-05T16:53:24.037Z,100121.40
2022-11-05T16:55:51.924Z,100115.60
2022-11-05T16:58:24.466Z,100115.20
2022-11-05T17:01:08.299Z,100115.60
2022-11-05T17:03:36.139Z,100120.00
2022-11-05T17:06:04.341Z,100122.60
2022-11-05T17:08:32.139Z,100124.20
2022-11-05T17:10:59.986Z,100126.40
2022-11-05T17:13:27.796Z,100129.40
2022-11-05T17:15:55.542Z,100131.20
2022-11-05T17:18:23.727Z,100127.00
2022-11-05T17:20:55.158Z,100129.60
2022-11-05T17:23:26.774Z,100128.20
2022-11-05T17:26:06.224Z,100129.80
2022-11-05T17:28:34.909Z,100133.60
2022-11-05T17:31:06.893Z,100131.00
2022-11-05T17:33:35.317Z,100130.40
2022-11-05T17:36:09.308Z,100127.40
2022-11-05T17:38:37.889Z,100124.80
2022-11-05T17:41:15.083Z,100127.60
2022-11-05T17:43:43.074Z,100129.80
2022-11-05T17:46:15.561Z,100133.00
2022-11-05T17:48:44.683Z,100129.80
2022-11-05T17:51:16.694Z,100128.40
2022-11-05T17:53:46.206Z,100121.80
2022-11-05T17:56:28.946Z,100124.40
2022-11-05T17:59:03.297Z,100129.60
2022-11-05T18:01:34.678Z,100127.20
2022-11-05T18:04:08.603Z,100129.20
2022-11-05T18:06:39.988Z,100119.20
2022-11-05T18:09:10.338Z,100124.40
2022-11-05T18:11:39.302Z,100119.40
2022-11-05T18:14:08.296Z,100113.40
2022-11-05T18:16:36.562Z,100114.60
2022-11-05T18:19:05.524Z,100114.20
2022-11-05T18:21:33.326Z,100107.80
2022-11-05T18:24:08.354Z,100107.00
2022-11-05T18:26:36.282Z,100107.20
2022-11-05T18:29:06.102Z,100101.60
2022-11-05T18:31:33.849Z,100101.20
2022-11-05T18:34:01.893Z,100096.80
2022-11-05T18:36:32.712Z,100094.20
2022-11-05T18:39:03.318Z,100093.40
2022-11-05T18:41:31.593Z,100092.00
2022-11-05T18:44:01.205Z,100092.00
2022-11-05T18:46:56.569Z,100096.20
2022-11-05T18:49:19.078Z,100089.00
2022-11-05T18:51:46.941Z,100091.20
2022-11-05T18:54:14.766Z,100092.00
2022-11-05T18:56:45.629Z,100093.00
2022-11-05T19:02:08.776Z,100093.80
2022-11-05T19:04:37.701Z,100092.80
2022-11-05T19:07:07.553Z,100095.20
2022-11-05T19:09:37.615Z,100089.40
2022-11-05T19:12:07.406Z,100084.00
2022-11-05T19:14:35.872Z,100089.40
2022-11-05T19:17:04.482Z,100084.20
2022-11-05T19:19:32.330Z,100086.40
2022-11-05T19:22:00.140Z,100082.80
2022-11-05T19:24:28.088Z,100083.40
2022-11-05T19:26:56.237Z,100079.40
2022-11-05T19:29:24.217Z,100076.80
2022-11-05T19:31:52.101Z,100082.00
2022-11-05T19:34:20.612Z,100079.80
2022-11-05T19:36:48.542Z,100072.80
2022-11-05T19:39:16.532Z,100071.80
2022-11-05T19:41:44.323Z,100069.20
2022-11-05T19:44:12.254Z,100066.00
2022-11-05T19:46:39.998Z,100069.40
2022-11-05T19:49:07.790Z,100066.40
2022-11-05T19:51:35.895Z,100074.20
2022-11-05T19:54:04.790Z,100072.80
2022-11-05T19:56:35.265Z,100068.80
2022-11-05T19:59:03.805Z,100061.60
2022-11-05T20:01:33.374Z,100065.20
2022-11-05T20:04:04.854Z,100063.60
2022-11-05T20:06:38.605Z,100062.00
2022-11-05T20:09:22.012Z,100065.60
2022-11-05T20:11:56.607Z,100066.00
2022-11-05T20:14:27.789Z,100062.60
2022-11-05T20:16:55.774Z,100066.20
2022-11-05T20:19:23.634Z,100067.00
2022-11-05T20:21:51.989Z,100064.80
2022-11-05T20:24:25.362Z,100065.20
2022-11-05T20:26:55.660Z,100056.00
2022-11-05T20:29:30.517Z,100059.00
2022-11-05T20:32:04.344Z,100059.60
2022-11-05T20:34:35.010Z,100058.80
2022-11-05T20:37:02.807Z,100054.00
2022-11-05T20:39:30.820Z,100056.80
2022-11-05T20:42:00.459Z,100049.80
2022-11-05T20:44:28.807Z,100054.40
2022-11-05T20:46:56.635Z,100053.20
2022-11-05T20:49:25.800Z,100056.60
2022-11-05T20:51:54.390Z,100059.80
2022-11-05T20:54:24.264Z,100059.00
2022-11-05T20:56:52.259Z,100057.80
2022-11-05T20:59:20.129Z,100062.00
2022-11-05T21:01:48.248Z,100065.80
2022-11-05T21:04:16.243Z,100062.60
2022-11-05T21:06:44.066Z,100061.40
2022-11-05T21:09:12.682Z,100058.00
2022-11-05T21:11:59.340Z,100055.60
2022-11-05T21:14:27.129Z,100050.80
2022-11-05T21:16:55.062Z,100045.00
2022-11-05T21:19:24.080Z,100050.40
2022-11-05T21:21:52.108Z,100049.80
2022-11-05T21:24:19.945Z,100056.20
2022-11-05T21:26:49.956Z,100055.80
2022-11-05T21:29:18.496Z,100061.40
2022-11-05T21:31:47.145Z,100058.00
2022-11-05T21:34:14.960Z,100062.20
2022-11-05T21:36:43.243Z,100064.60
2022-11-05T21:39:13.679Z,100053.20
2022-11-05T21:41:42.757Z,100062.60
2022-11-05T21:44:10.710Z,100058.80
2022-11-05T21:46:38.527Z,100054.80
2022-11-05T21:49:06.510Z,100061.00
2022-11-05T21:52:12.685Z,100058.20
2022-11-05T21:54:59.382Z,100057.00
2022-11-05T21:57:45.955Z,100060.60
2022-11-05T22:00:14.226Z,100060.20
2022-11-05T22:02:42.093Z,100054.80
2022-11-05T22:05:10.147Z,100054.60
2022-11-05T22:07:39.211Z,100063.40
2022-11-05T22:10:15.920Z,100063.40
2022-11-05T22:12:45.312Z,100048.00
2022-11-05T22:15:13.725Z,100032.00
2022-11-05T22:17:46.646Z,100031.80
2022-11-05T22:20:16.596Z,100049.60
2022-11-05T22:22:45.231Z,100048.00
2022-11-05T22:25:14.394Z,100040.20
2022-11-05T22:27:43.913Z,100039.60
2022-11-05T22:30:13.908Z,100035.40
2022-11-05T22:32:41.864Z,100028.00
2022-11-05T22:35:10.570Z,100025.00
2022-11-05T22:37:38.633Z,100017.40
2022-11-05T22:40:07.127Z,100002.80
2022-11-05T22:42:35.210Z,99996.40
2022-11-05T22:45:03.434Z,100002.00
2022-11-05T22:47:31.239Z,99995.80
2022-11-05T22:49:59.258Z,99991.60
2022-11-05T22:52:27.490Z,99984.20
2022-11-05T22:54:55.300Z,99975.60
2022-11-05T22:57:23.158Z,99980.80
2022-11-05T22:59:50.985Z,99987.80
2022-11-05T23:02:18.841Z,99991.00
2022-11-05T23:04:46.648Z,99988.80
2022-11-05T23:07:46.713Z,99987.60
2022-11-05T23:10:33.368Z,99983.80
2022-11-05T23:13:01.078Z,99991.20
2022-11-05T23:15:47.650Z,99996.80
2022-11-05T23:18:44.572Z,99994.60
2022-11-05T23:21:31.045Z,99992.20
2022-11-05T23:24:05.092Z,99988.40
2022-11-05T23:26:50.677Z,99975.80
2022-11-05T23:29:22.608Z,99974.40
2022-11-05T23:32:10.471Z,99985.20
2022-11-05T23:34:38.995Z,99981.40
2022-11-05T23:37:26.218Z,99972.00
2022-11-05T23:39:54.411Z,99982.00
2022-11-05T23:42:41.310Z,99983.60
2022-11-05T23:45:28.496Z,99974.60
2022-11-05T23:48:15.065Z,99974.80
2022-11-05T23:50:56.844Z,99969.40
2022-11-05T23:53:25.445Z,99971.40
2022-11-05T23:55:53.433Z,99965.80
2022-11-05T23:58:21.211Z,99959.40
